createdAt,value
2023-03-18T00:01:34.684Z,10.70
2023-03-18T00:07:29.043Z,10.90
2023-03-18T00:13:23.504Z,11.10
2023-03-18T00:19:42.624Z,11.40
2023-03-18T00:26:01.488Z,11.60
2023-03-18T00:31:55.876Z,11.70
2023-03-18T00:37:50.378Z,11.70
2023-03-18T00:44:09.411Z,11.70
2023-03-18T00:50:27.813Z,11.80
2023-03-18T00:56:22.858Z,11.80
2023-03-18T01:02:17.472Z,11.70
2023-03-18T01:08:36.118Z,11.80
2023-03-18T01:14:54.637Z,11.70
2023-03-18T01:20:49.504Z,11.70
2023-03-18T01:26:44.647Z,11.70
2023-03-18T01:33:04.794Z,11.70
2023-03-18T01:39:23.543Z,11.60
2023-03-18T01:45:21.855Z,11.50
2023-03-18T01:51:16.579Z,11.50
2023-03-18T01:57:47.522Z,11.50
2023-03-18T02:04:06.491Z,11.50
2023-03-18T02:10:05.650Z,11.40
2023-03-18T02:16:04.995Z,11.40
2023-03-18T02:22:32.115Z,11.40
2023-03-18T02:28:50.806Z,11.40
2023-03-18T02:34:45.237Z,11.30
2023-03-18T02:40:40.793Z,11.30
2023-03-18T02:47:01.152Z,11.20
2023-03-18T02:53:19.527Z,11.20
2023-03-18T02:59:13.884Z,11.20
2023-03-18T03:05:09.361Z,11.10
2023-03-18T03:11:28.457Z,11.10
2023-03-18T03:17:48.432Z,10.90
2023-03-18T03:23:43.035Z,10.80
2023-03-18T03:29:37.484Z,10.70
2023-03-18T03:35:58.125Z,10.60
2023-03-18T03:42:16.572Z,10.50
2023-03-18T03:48:11.364Z,10.50
2023-03-18T03:54:05.890Z,10.40
2023-03-18T04:00:36.418Z,10.30
2023-03-18T04:06:56.230Z,10.30
2023-03-18T04:12:50.963Z,10.20
2023-03-18T04:18:45.536Z,10.20
2023-03-18T04:25:04.931Z,10.20
2023-03-18T04:31:23.537Z,10.10
2023-03-18T04:37:20.218Z,10.00
2023-03-18T04:43:15.355Z,9.90
2023-03-18T04:49:34.645Z,9.80
2023-03-18T04:55:53.026Z,9.80
2023-03-18T05:01:47.484Z,9.70
2023-03-18T05:07:42.487Z,9.50
2023-03-18T05:14:01.033Z,9.50
2023-03-18T05:20:19.548Z,9.50
2023-03-18T05:26:13.939Z,9.50
2023-03-18T05:32:08.640Z,9.40
2023-03-18T05:38:27.296Z,9.40
2023-03-18T05:44:45.687Z,9.50
2023-03-18T05:50:41.780Z,9.50
2023-03-18T05:56:36.380Z,9.50
2023-03-18T06:03:06.998Z,9.60
2023-03-18T06:09:26.013Z,9.80
2023-03-18T06:15:21.484Z,9.70
2023-03-18T06:21:16.903Z,9.70
2023-03-18T06:27:35.797Z,9.80
2023-03-18T06:33:55.484Z,9.90
2023-03-18T06:39:49.981Z,10.00
2023-03-18T06:45:44.457Z,10.10
2023-03-18T06:52:03.768Z,10.20
2023-03-18T06:58:22.135Z,10.30
2023-03-18T07:04:16.520Z,10.40
2023-03-18T07:10:21.940Z,10.50
2023-03-18T07:16:41.103Z,10.60
2023-03-18T07:28:26.882Z,10.80
2023-03-18T07:34:21.688Z,11.60
2023-03-18T07:40:40.208Z,11.70
2023-03-18T07:46:58.790Z,11.90
2023-03-18T07:52:54.223Z,11.80
2023-03-18T07:58:48.767Z,11.90
2023-03-18T08:05:07.567Z,11.70
2023-03-18T08:11:26.129Z,11.60
2023-03-18T08:17:20.528Z,11.50
2023-03-18T08:23:15.063Z,11.40
2023-03-18T08:29:33.667Z,11.40
2023-03-18T08:35:52.231Z,11.50
2023-03-18T08:41:46.786Z,11.50
2023-03-18T08:47:41.864Z,11.50
2023-03-18T08:54:00.819Z,11.70
2023-03-18T09:00:22.519Z,12.00
2023-03-18T09:06:16.998Z,12.10
2023-03-18T09:12:12.769Z,12.10
2023-03-18T09:18:31.295Z,12.20
2023-03-18T09:24:49.686Z,12.50
2023-03-18T09:30:44.690Z,12.40
2023-03-18T09:36:39.779Z,12.70
2023-03-18T09:43:29.570Z,12.80
2023-03-18T09:50:06.671Z,13.20
2023-03-18T09:56:02.186Z,13.50
2023-03-18T10:01:57.247Z,14.10
2023-03-18T10:08:40.402Z,14.60
2023-03-18T10:15:13.351Z,15.20
2023-03-18T10:21:30.373Z,15.70
2023-03-18T10:27:38.397Z,15.60
2023-03-18T10:33:58.174Z,15.70
2023-03-18T10:40:17.837Z,15.90
2023-03-18T10:46:14.408Z,16.00
2023-03-18T10:52:31.561Z,16.20
2023-03-18T10:58:50.121Z,16.30
2023-03-18T11:05:18.301Z,16.40
2023-03-18T11:11:23.033Z,16.50
2023-03-18T11:17:34.837Z,16.60
2023-03-18T11:24:08.996Z,16.50
2023-03-18T11:30:34.335Z,16.40
2023-03-18T11:36:32.660Z,16.30
2023-03-18T11:42:27.177Z,16.40
2023-03-18T11:48:45.743Z,16.50
2023-03-18T11:55:08.217Z,16.70
2023-03-18T12:01:02.619Z,17.30
2023-03-18T12:07:20.174Z,17.20
2023-03-18T12:13:56.316Z,16.70
2023-03-18T12:20:30.128Z,16.30
2023-03-18T12:26:34.693Z,16.10
2023-03-18T12:33:07.320Z,15.90
2023-03-18T12:39:30.969Z,16.10
2023-03-18T12:45:49.772Z,16.80
2023-03-18T12:51:45.930Z,17.00
2023-03-18T12:57:54.605Z,17.30
2023-03-18T13:04:15.876Z,17.10
2023-03-18T13:10:34.997Z,17.00
2023-03-18T13:16:29.926Z,17.10
2023-03-18T13:22:42.548Z,17.10
2023-03-18T13:29:35.082Z,16.90
2023-03-18T13:35:56.612Z,16.60
2023-03-18T13:41:51.102Z,16.40
2023-03-18T13:47:45.624Z,16.30
2023-03-18T13:54:08.816Z,16.30
2023-03-18T14:00:28.666Z,16.30
2023-03-18T14:06:35.040Z,16.30
2023-03-18T14:12:37.046Z,16.00
2023-03-18T14:19:03.210Z,16.10
2023-03-18T14:25:31.035Z,16.00
2023-03-18T14:31:29.221Z,16.00
2023-03-18T14:37:29.176Z,16.00
2023-03-18T14:44:09.233Z,16.10
2023-03-18T14:50:29.452Z,16.60
2023-03-18T14:56:24.917Z,16.70
2023-03-18T15:02:37.509Z,16.40
2023-03-18T15:09:01.390Z,16.30
2023-03-18T15:15:19.925Z,16.10
2023-03-18T15:21:18.222Z,15.80
2023-03-18T15:27:15.726Z,15.50
2023-03-18T15:33:36.599Z,15.50
2023-03-18T15:39:56.966Z,14.80
2023-03-18T15:45:55.743Z,13.80
2023-03-18T15:51:50.257Z,13.50
2023-03-18T15:58:15.536Z,13.80
2023-03-18T16:04:35.534Z,14.00
2023-03-18T16:10:29.944Z,14.00
2023-03-18T16:16:28.370Z,14.00
2023-03-18T16:22:47.122Z,14.10
2023-03-18T16:29:11.621Z,14.10
2023-03-18T16:35:07.117Z,14.00
2023-03-18T16:41:01.790Z,14.00
2023-03-18T16:47:25.540Z,14.20
2023-03-18T16:53:43.958Z,14.10
2023-03-18T16:59:38.596Z,14.00
2023-03-18T17:05:33.351Z,13.80
2023-03-18T17:11:54.234Z,13.70
2023-03-18T17:18:13.512Z,13.70
2023-03-18T17:24:09.467Z,13.70
2023-03-18T17:30:07.550Z,13.70
2023-03-18T17:36:26.056Z,13.60
2023-03-18T17:42:44.720Z,13.50
2023-03-18T17:48:39.406Z,13.40
2023-03-18T17:54:35.015Z,13.20
2023-03-18T18:00:54.131Z,13.20
2023-03-18T18:07:21.897Z,13.10
2023-03-18T18:13:17.185Z,13.00
2023-03-18T18:19:11.748Z,12.90
2023-03-18T18:25:30.744Z,12.90
2023-03-18T18:31:49.339Z,12.90
2023-03-18T18:37:43.819Z,13.00
2023-03-18T18:43:38.361Z,12.90
2023-03-18T18:49:56.927Z,13.00
2023-03-18T18:56:19.946Z,13.00
2023-03-18T19:02:27.357Z,12.80
2023-03-18T19:08:26.229Z,12.70
2023-03-18T19:14:45.309Z,12.80
2023-03-18T19:21:03.854Z,12.90
2023-03-18T19:27:02.173Z,12.90
2023-03-18T19:32:59.841Z,12.90
2023-03-18T19:39:20.524Z,12.90
2023-03-18T19:45:40.038Z,12.90
2023-03-18T19:51:34.400Z,12.90
2023-03-18T19:57:29.832Z,12.80
2023-03-18T20:03:49.607Z,12.80
2023-03-18T20:10:10.902Z,12.80
2023-03-18T20:16:05.405Z,12.70
2023-03-18T20:21:59.901Z,12.70
2023-03-18T20:28:25.782Z,12.70
2023-03-18T20:34:46.739Z,12.80
2023-03-18T20:40:42.582Z,12.70
2023-03-18T20:46:37.132Z,12.70
2023-03-18T20:52:55.676Z,12.70
2023-03-18T20:59:14.213Z,12.70
2023-03-18T21:05:09.748Z,12.50
2023-03-18T21:11:04.431Z,12.40
2023-03-18T21:17:24.659Z,12.40
2023-03-18T21:23:43.200Z,12.40
2023-03-18T21:29:37.599Z,12.30
2023-03-18T21:35:32.403Z,12.00
2023-03-18T21:41:52.290Z,12.00
2023-03-18T21:48:10.720Z,11.80
2023-03-18T21:54:05.240Z,11.70
2023-03-18T21:59:59.779Z,11.50
2023-03-18T22:06:18.596Z,11.40
2023-03-18T22:12:37.049Z,11.40
2023-03-18T22:18:31.589Z,11.30
2023-03-18T22:24:26.074Z,11.30
2023-03-18T22:30:46.116Z,11.20
2023-03-18T22:37:04.654Z,11.20
2023-03-18T22:42:59.763Z,11.10
2023-03-18T22:48:54.246Z,10.90
2023-03-18T22:55:23.445Z,10.90
2023-03-18T23:01:41.896Z,10.90
2023-03-18T23:07:36.419Z,10.80
2023-03-18T23:13:37.003Z,10.60
2023-03-18T23:19:55.479Z,10.60
2023-03-18T23:26:13.844Z,10.60
2023-03-18T23:32:08.663Z,10.50
2023-03-18T23:38:03.301Z,10.40
2023-03-18T23:44:21.761Z,10.40
2023-03-18T23:50:40.175Z,10.40
2023-03-18T23:56:34.972Z,10.20
